Time;durP1;ratioP1;P1;durP2;ratioP2;P2;SDS_P1;SDS_P2;PMS_P1;PMS_P2;Temp;Humidity;BMP_temperature;BMP_pressure;BME280_temperature;BME280_humidity;BME280_pressure;Samples;Min_cycle;Max_cycle;Signal;HPM_P1;HPM_P2
2022/01/26 00:05:44;;;;;;;17.87;9.03;;;7.40;55.50;;;;;;5016314;28;20467;-86
2022/01/26 00:06:30;;;;;;;22.27;9.87;;;7.50;55.90;;;;;;5073807;28;20446;-84
2022/01/26 00:08:58;;;;;;;12.97;7.63;;;7.70;55.80;;;;;;5075626;28;20884;-85
2022/01/26 00:11:27;;;;;;;15.63;8.57;;;7.60;55.10;;;;;;5074497;28;20463;-86
2022/01/26 00:13:54;;;;;;;18.90;8.13;;;7.70;55.40;;;;;;5073889;28;20907;-86
2022/01/26 00:16:26;;;;;;;25.47;8.63;;;7.80;55.30;;;;;;5075971;28;20455;-85
2022/01/26 00:18:57;;;;;;;18.27;8.43;;;7.90;55.10;;;;;;5074175;28;20456;-85
2022/01/26 00:21:34;;;;;;;16.17;7.40;;;7.90;55.00;;;;;;5074941;28;20970;-86
2022/01/26 00:24:21;;;;;;;23.97;8.50;;;7.90;54.90;;;;;;5055741;28;20475;-86
2022/01/26 00:29:47;;;;;;;19.23;8.77;;;8.00;54.90;;;;;;5064480;28;20982;-85
2022/01/26 00:40:35;;;;;;;18.50;7.93;;;7.60;54.90;;;;;;5075262;28;20468;-86
2022/01/26 00:43:13;;;;;;;18.97;9.67;;;7.30;55.50;;;;;;5073833;28;21161;-86
2022/01/26 00:45:41;;;;;;;17.90;7.70;;;7.30;55.70;;;;;;5074690;28;20454;-86
2022/01/26 00:48:09;;;;;;;22.73;9.60;;;7.30;55.60;;;;;;5074481;28;20960;-86
2022/01/26 00:50:39;;;;;;;23.00;9.60;;;7.30;55.60;;;;;;5073184;28;20894;-84
2022/01/26 00:53:08;;;;;;;24.57;9.83;;;7.10;55.80;;;;;;5075229;28;20516;-86
2022/01/26 00:55:35;;;;;;;22.93;10.37;;;6.90;56.60;;;;;;5072778;28;20488;-86
2022/01/26 00:58:04;;;;;;;26.17;11.00;;;6.60;57.30;;;;;;5078317;28;20930;-85
2022/01/26 01:00:31;;;;;;;19.97;9.90;;;6.60;57.60;;;;;;5072505;28;20479;-83
2022/01/26 01:03:01;;;;;;;25.03;11.00;;;6.70;57.70;;;;;;5079782;28;20463;-85
2022/01/26 01:05:34;;;;;;;27.80;11.77;;;6.80;57.40;;;;;;5076053;28;20473;-85
2022/01/26 01:08:05;;;;;;;23.70;11.70;;;6.80;57.20;;;;;;5075320;28;20463;-86
2022/01/26 01:10:33;;;;;;;19.73;9.63;;;6.90;57.20;;;;;;5075016;28;20456;-86
2022/01/26 01:13:01;;;;;;;21.67;10.23;;;6.90;57.10;;;;;;5076692;28;20492;-85
2022/01/26 01:15:30;;;;;;;23.23;10.20;;;7.10;57.00;;;;;;5073077;28;20537;-86
2022/01/26 01:18:07;;;;;;;25.43;10.40;;;7.10;56.90;;;;;;5074427;28;20459;-85
2022/01/26 01:20:57;;;;;;;22.30;9.67;;;7.00;56.60;;;;;;5077459;28;20920;-85
2022/01/26 01:23:58;;;;;;;25.20;9.80;;;7.10;56.50;;;;;;5075823;28;20464;-86
2022/01/26 01:29:13;;;;;;;22.50;9.33;;;7.20;56.30;;;;;;5073842;28;20455;-86
2022/01/26 01:31:47;;;;;;;24.57;10.93;;;7.10;56.70;;;;;;5075071;28;20455;-85
2022/01/26 01:34:17;;;;;;;18.03;10.17;;;7.10;56.30;;;;;;5078989;28;20564;-86
2022/01/26 01:36:47;;;;;;;18.90;9.53;;;7.00;56.30;;;;;;5056499;28;20451;-85
2022/01/26 01:39:15;;;;;;;20.33;8.50;;;7.20;56.30;;;;;;5073619;28;20465;-86
2022/01/26 01:41:47;;;;;;;17.97;8.27;;;7.30;55.70;;;;;;5077986;28;20461;-85
2022/01/26 01:44:16;;;;;;;20.43;9.13;;;7.40;55.50;;;;;;5075303;28;20476;-86
2022/01/26 01:46:44;;;;;;;25.83;9.43;;;7.40;55.40;;;;;;5068744;28;20842;-85
2022/01/26 01:49:13;;;;;;;25.60;10.30;;;7.40;55.00;;;;;;5070511;28;20457;-85
2022/01/26 01:51:46;;;;;;;16.43;7.90;;;7.50;54.70;;;;;;5071182;28;20465;-86
2022/01/26 01:54:15;;;;;;;17.83;8.67;;;7.50;54.80;;;;;;5073916;28;20468;-86
2022/01/26 01:56:44;;;;;;;21.57;8.40;;;7.40;55.10;;;;;;5073216;28;20508;-86
2022/01/26 01:59:11;;;;;;;23.93;8.17;;;7.50;54.90;;;;;;5072780;28;20463;-86
2022/01/26 02:01:38;;;;;;;15.50;8.10;;;7.30;54.60;;;;;;5078999;28;20562;-86
2022/01/26 02:04:07;;;;;;;13.10;6.70;;;7.10;55.20;;;;;;5070146;28;20491;-86
2022/01/26 02:06:34;;;;;;;19.50;8.77;;;6.90;55.70;;;;;;5071929;28;21297;-85
2022/01/26 02:09:01;;;;;;;14.03;7.60;;;6.90;55.90;;;;;;5073565;28;20471;-86
2022/01/26 02:11:28;;;;;;;14.50;6.80;;;7.00;56.00;;;;;;5077388;28;20863;-86
2022/01/26 02:14:01;;;;;;;13.83;7.93;;;7.00;55.60;;;;;;5070735;28;20477;-85
2022/01/26 02:16:35;;;;;;;14.20;8.00;;;6.80;55.70;;;;;;5070751;28;20475;-86
2022/01/26 02:49:19;;;;;;;17.20;7.53;;;6.60;56.40;;;;;;5070584;28;20782;-86
2022/01/26 02:50:24;;;;;;;15.77;7.10;;;7.30;54.10;;;;;;5070815;28;20501;-86
2022/01/26 02:53:02;;;;;;;17.47;9.27;;;7.40;54.40;;;;;;5054173;28;20991;-86
2022/01/26 02:55:41;;;;;;;14.70;7.30;;;7.30;54.20;;;;;;5073573;28;21030;-86
2022/01/26 03:01:07;;;;;;;14.23;6.73;;;7.20;54.50;;;;;;5073148;28;20471;-86
2022/01/26 03:03:36;;;;;;;15.50;5.93;;;7.10;54.50;;;;;;5075968;28;20964;-86
2022/01/26 03:06:08;;;;;;;14.07;7.87;;;7.10;54.70;;;;;;5072036;28;21026;-86
2022/01/26 03:08:39;;;;;;;15.60;7.30;;;7.20;54.80;;;;;;5071408;28;20456;-85
2022/01/26 03:11:10;;;;;;;20.20;7.53;;;7.30;54.50;;;;;;5072355;28;20478;-86
2022/01/26 03:13:42;;;;;;;17.80;8.90;;;7.40;54.50;;;;;;5053850;28;20500;-85
2022/01/26 03:16:13;;;;;;;21.33;9.10;;;7.40;54.20;;;;;;5075181;28;20975;-86
2022/01/26 03:18:59;;;;;;;18.60;7.20;;;7.40;54.40;;;;;;5078597;28;20573;-86
2022/01/26 03:21:33;;;;;;;21.83;6.60;;;7.50;54.30;;;;;;5062267;28;20460;-86
2022/01/26 03:29:54;;;;;;;14.40;8.43;;;7.40;54.20;;;;;;5073919;28;20460;-85
2022/01/26 03:32:49;;;;;;;21.43;8.83;;;7.40;54.10;;;;;;5075207;28;20817;-84
2022/01/26 03:35:27;;;;;;;20.63;7.90;;;7.30;54.00;;;;;;5072831;28;20919;-86
2022/01/26 03:37:55;;;;;;;18.20;9.10;;;7.30;54.20;;;;;;5077712;28;20462;-86
2022/01/26 03:40:30;;;;;;;21.13;9.20;;;7.20;54.50;;;;;;5071044;28;20885;-86
2022/01/26 03:42:59;;;;;;;18.30;7.53;;;7.20;54.60;;;;;;5074375;28;20458;-86
2022/01/26 03:45:26;;;;;;;18.67;8.20;;;7.20;54.40;;;;;;5071169;28;21068;-85
2022/01/26 03:47:54;;;;;;;24.00;9.40;;;7.20;54.70;;;;;;5070268;28;21068;-86
2022/01/26 03:50:22;;;;;;;19.50;9.27;;;7.10;54.90;;;;;;5050470;28;21027;-85
2022/01/26 03:52:49;;;;;;;24.60;9.97;;;6.90;55.10;;;;;;5074582;28;20462;-85
2022/01/26 03:55:17;;;;;;;18.30;8.40;;;6.90;55.30;;;;;;5074339;28;20484;-86
2022/01/26 03:57:44;;;;;;;21.53;9.33;;;7.00;55.00;;;;;;5073844;28;20479;-86
2022/01/26 04:00:14;;;;;;;15.60;8.67;;;7.10;55.00;;;;;;5075026;28;20459;-86
2022/01/26 04:02:41;;;;;;;17.80;9.00;;;7.10;55.00;;;;;;5075363;28;20454;-86
2022/01/26 04:05:11;;;;;;;24.27;10.20;;;7.10;55.00;;;;;;5072986;28;20562;-85
2022/01/26 04:07:39;;;;;;;24.17;9.10;;;7.00;55.20;;;;;;5075936;28;20464;-86
2022/01/26 04:10:16;;;;;;;25.13;9.63;;;7.00;55.30;;;;;;5074712;28;20551;-86
2022/01/26 04:12:43;;;;;;;17.03;9.47;;;7.00;55.10;;;;;;5040714;28;20504;-86
2022/01/26 04:15:19;;;;;;;15.90;9.37;;;7.10;55.00;;;;;;5074901;28;20493;-86
2022/01/26 04:17:48;;;;;;;16.70;8.23;;;7.10;55.40;;;;;;5074968;28;20560;-86
2022/01/26 04:20:15;;;;;;;18.63;8.00;;;7.10;55.40;;;;;;5078236;28;20484;-86
2022/01/26 04:22:52;;;;;;;17.97;7.73;;;7.00;55.30;;;;;;5077056;28;20448;-86
2022/01/26 04:25:23;;;;;;;17.00;7.23;;;7.10;55.20;;;;;;5056595;28;20567;-86
2022/01/26 04:27:53;;;;;;;18.00;8.20;;;7.30;54.80;;;;;;5074950;28;20456;-86
2022/01/26 04:30:20;;;;;;;18.30;7.37;;;7.20;54.40;;;;;;5076766;28;20456;-85
2022/01/26 04:32:48;;;;;;;18.37;9.67;;;7.20;54.60;;;;;;5071796;28;20786;-86
2022/01/26 04:35:16;;;;;;;21.43;9.70;;;7.30;54.60;;;;;;5071048;28;20869;-86
2022/01/26 04:38:06;;;;;;;15.00;8.60;;;7.30;54.20;;;;;;5056629;28;20869;-86
2022/01/26 04:40:39;;;;;;;17.30;7.77;;;7.30;54.00;;;;;;5075021;28;20463;-86
2022/01/26 04:43:07;;;;;;;15.47;8.03;;;7.30;54.30;;;;;;5058245;28;20821;-86
2022/01/26 04:45:34;;;;;;;18.70;8.10;;;7.30;54.20;;;;;;5076768;28;20477;-85
2022/01/26 04:48:03;;;;;;;13.50;8.40;;;7.20;54.10;;;;;;5074179;28;20772;-86
2022/01/26 04:50:30;;;;;;;18.57;8.87;;;7.10;53.80;;;;;;5055563;28;20461;-86
2022/01/26 04:52:57;;;;;;;20.90;11.43;;;7.20;53.90;;;;;;5075306;28;21772;-86
2022/01/26 04:55:24;;;;;;;21.90;8.23;;;7.30;53.70;;;;;;5073910;28;20487;-86
2022/01/26 04:57:51;;;;;;;15.50;7.50;;;7.30;53.60;;;;;;5073810;28;20460;-86
2022/01/26 05:00:18;;;;;;;16.60;9.83;;;7.30;53.00;;;;;;5077273;28;20453;-86
2022/01/26 05:02:46;;;;;;;18.03;9.70;;;7.40;53.30;;;;;;5076160;28;20973;-86
2022/01/26 05:05:14;;;;;;;19.70;9.83;;;7.40;53.10;;;;;;5071727;28;20480;-85
2022/01/26 05:07:41;;;;;;;11.60;7.20;;;7.30;53.00;;;;;;5075544;28;20459;-86
2022/01/26 05:10:09;;;;;;;11.77;7.23;;;7.30;52.90;;;;;;5072404;28;20549;-86
2022/01/26 05:12:37;;;;;;;13.47;8.00;;;7.30;53.20;;;;;;5075863;28;20452;-83
2022/01/26 05:15:04;;;;;;;12.30;7.13;;;7.30;53.00;;;;;;5073296;28;20482;-85
2022/01/26 05:17:31;;;;;;;17.83;7.03;;;7.10;52.90;;;;;;5073058;28;21315;-86
2022/01/26 05:20:00;;;;;;;20.53;8.27;;;7.10;53.40;;;;;;5076832;28;20460;-86
2022/01/26 05:22:30;;;;;;;15.60;8.30;;;7.10;53.30;;;;;;5053911;28;20934;-85
2022/01/26 05:24:57;;;;;;;15.60;8.27;;;7.10;53.10;;;;;;5073262;28;20553;-86
2022/01/26 05:27:24;;;;;;;17.70;9.87;;;7.10;53.30;;;;;;5073254;28;21241;-86
2022/01/26 05:29:51;;;;;;;15.83;8.23;;;7.20;53.10;;;;;;5078353;28;20464;-86
2022/01/26 05:32:19;;;;;;;17.53;10.40;;;7.20;53.00;;;;;;5073637;28;20982;-85
2022/01/26 05:34:46;;;;;;;14.73;7.90;;;7.30;52.80;;;;;;5073360;28;21369;-86
2022/01/26 05:37:13;;;;;;;19.00;8.03;;;7.30;52.90;;;;;;5073849;28;20567;-86
2022/01/26 05:39:41;;;;;;;19.43;7.97;;;7.30;53.00;;;;;;5074048;28;20839;-85
2022/01/26 05:42:09;;;;;;;13.37;8.20;;;7.30;53.10;;;;;;5074411;28;20467;-86
2022/01/26 05:44:36;;;;;;;14.80;7.40;;;7.30;52.70;;;;;;5076512;28;20762;-85
2022/01/26 05:47:05;;;;;;;12.50;7.47;;;7.30;52.80;;;;;;5074947;28;20462;-84
2022/01/26 05:49:32;;;;;;;19.10;8.77;;;7.40;52.80;;;;;;5071493;28;20469;-86
2022/01/26 05:51:59;;;;;;;16.10;10.00;;;7.50;52.80;;;;;;5072263;28;20457;-86
2022/01/26 05:54:26;;;;;;;18.30;8.50;;;7.40;52.40;;;;;;5076664;28;20488;-85
2022/01/26 05:56:54;;;;;;;18.10;8.00;;;7.50;52.60;;;;;;5074217;28;20476;-86
2022/01/26 05:59:21;;;;;;;21.30;9.13;;;7.40;52.20;;;;;;5072290;28;20460;-85
2022/01/26 06:01:49;;;;;;;26.33;12.40;;;7.20;52.50;;;;;;5074211;28;20550;-86
2022/01/26 06:04:16;;;;;;;27.13;11.90;;;7.30;52.80;;;;;;5073819;28;20514;-86
2022/01/26 06:06:43;;;;;;;24.97;12.47;;;7.20;52.90;;;;;;5070685;28;20464;-86
2022/01/26 06:09:10;;;;;;;17.40;8.70;;;7.20;53.00;;;;;;5053896;28;20831;-86
2022/01/26 06:11:37;;;;;;;17.97;9.83;;;7.20;53.10;;;;;;5074898;28;20456;-85
2022/01/26 06:14:06;;;;;;;17.80;8.90;;;7.30;53.20;;;;;;5074888;28;20485;-85
2022/01/26 06:16:33;;;;;;;18.33;9.80;;;7.40;53.10;;;;;;5075455;28;20486;-86
2022/01/26 06:18:59;;;;;;;16.10;10.83;;;7.30;52.90;;;;;;5075242;28;20467;-86
2022/01/26 06:21:26;;;;;;;25.17;8.80;;;7.20;53.10;;;;;;5073364;28;20453;-85
2022/01/26 06:23:53;;;;;;;22.57;11.27;;;6.90;53.20;;;;;;5074449;28;20472;-86
2022/01/26 06:26:20;;;;;;;28.77;14.90;;;6.80;54.00;;;;;;5072164;28;20453;-84
2022/01/26 06:28:47;;;;;;;30.50;12.97;;;6.90;54.10;;;;;;5072774;28;21266;-86
2022/01/26 06:31:16;;;;;;;17.03;9.73;;;7.00;54.00;;;;;;5073966;28;20485;-86
2022/01/26 06:33:45;;;;;;;22.13;10.60;;;7.20;53.80;;;;;;5075332;28;20499;-86
2022/01/26 06:36:13;;;;;;;22.40;11.37;;;7.20;53.70;;;;;;5074735;28;20483;-85
2022/01/26 06:38:41;;;;;;;27.97;10.23;;;7.20;53.70;;;;;;5071846;28;20500;-86
2022/01/26 06:41:09;;;;;;;18.57;10.53;;;7.20;53.60;;;;;;5070522;28;20452;-85
2022/01/26 06:43:45;;;;;;;23.87;10.10;;;7.20;53.80;;;;;;5073299;28;20472;-85
2022/01/26 06:46:19;;;;;;;21.47;10.07;;;7.20;54.00;;;;;;5076453;28;20532;-86
2022/01/26 06:49:02;;;;;;;23.70;10.33;;;7.10;54.00;;;;;;5070333;28;20456;-83
2022/01/26 06:51:29;;;;;;;21.77;8.80;;;7.10;54.10;;;;;;5074288;28;20459;-86
2022/01/26 06:53:56;;;;;;;24.57;9.63;;;7.10;54.40;;;;;;5073183;28;20480;-84
2022/01/26 06:56:23;;;;;;;20.43;9.80;;;7.10;54.50;;;;;;5069917;28;20472;-85
2022/01/26 06:58:50;;;;;;;26.17;11.27;;;7.00;54.60;;;;;;5075937;28;20455;-85
2022/01/26 07:01:17;;;;;;;21.70;9.23;;;6.90;55.30;;;;;;5063287;28;20473;-84
2022/01/26 07:03:46;;;;;;;25.60;9.80;;;6.70;55.40;;;;;;5065247;28;21237;-85
2022/01/26 07:06:15;;;;;;;18.27;8.07;;;6.40;56.30;;;;;;5070851;28;20457;-87
2022/01/26 07:08:42;;;;;;;21.00;9.40;;;6.50;56.50;;;;;;5071090;28;20979;-86
2022/01/26 07:11:09;;;;;;;23.00;11.83;;;6.70;56.30;;;;;;5060664;28;20461;-86
2022/01/26 07:13:37;;;;;;;19.73;8.33;;;6.80;55.80;;;;;;5072981;28;20472;-84
2022/01/26 07:21:35;;;;;;;15.80;7.70;;;6.40;57.00;;;;;;5049746;28;20454;-87
2022/01/26 07:24:02;;;;;;;13.73;7.90;;;6.60;56.60;;;;;;5070506;28;20995;-86
2022/01/26 07:26:30;;;;;;;22.80;10.20;;;6.70;56.30;;;;;;5068547;28;20575;-86
2022/01/26 07:28:58;;;;;;;15.03;7.03;;;6.70;56.00;;;;;;5072223;28;20539;-86
2022/01/26 07:31:25;;;;;;;15.03;6.93;;;6.70;55.80;;;;;;5067589;28;20455;-86
2022/01/26 07:33:54;;;;;;;14.13;8.20;;;6.50;55.90;;;;;;5070371;28;20519;-86
2022/01/26 07:36:22;;;;;;;8.17;5.30;;;6.50;56.10;;;;;;5076868;28;20588;-86
2022/01/26 07:38:51;;;;;;;12.83;5.70;;;6.50;55.80;;;;;;5057569;28;20456;-86
2022/01/26 07:41:18;;;;;;;13.23;7.27;;;6.40;56.00;;;;;;5074341;28;20453;-86
2022/01/26 07:43:46;;;;;;;10.13;7.37;;;6.40;56.10;;;;;;5078765;28;20477;-85
2022/01/26 07:46:14;;;;;;;8.60;6.90;;;6.40;56.10;;;;;;5075169;28;20483;-86
2022/01/26 07:48:41;;;;;;;12.27;6.53;;;6.40;56.10;;;;;;5075530;28;20570;-86
2022/01/26 07:51:08;;;;;;;12.70;8.00;;;6.30;56.20;;;;;;5069742;28;20456;-86
2022/01/26 07:53:35;;;;;;;18.63;7.33;;;6.30;56.10;;;;;;5071696;28;20475;-86
2022/01/26 07:56:04;;;;;;;9.20;6.57;;;6.30;56.40;;;;;;5076121;28;21069;-86
2022/01/26 07:58:31;;;;;;;21.90;7.77;;;6.40;56.20;;;;;;5074260;28;20551;-86
2022/01/26 08:00:58;;;;;;;12.47;6.57;;;6.40;56.20;;;;;;5075803;28;20556;-86
2022/01/26 08:03:25;;;;;;;19.17;7.10;;;6.60;55.90;;;;;;5073542;28;20523;-86
2022/01/26 08:05:52;;;;;;;11.43;5.33;;;6.70;55.70;;;;;;5077234;28;20820;-86
2022/01/26 08:08:19;;;;;;;12.77;6.60;;;6.60;55.50;;;;;;5074285;28;20461;-86
2022/01/26 08:10:49;;;;;;;7.57;5.83;;;6.60;55.90;;;;;;5076040;28;20600;-86
2022/01/26 08:13:17;;;;;;;11.07;6.13;;;6.70;55.70;;;;;;5077090;28;20515;-86
2022/01/26 08:15:44;;;;;;;7.73;5.00;;;6.70;55.60;;;;;;5077573;28;20456;-86
2022/01/26 08:18:11;;;;;;;9.17;4.73;;;6.80;55.40;;;;;;5074757;28;20483;-86
2022/01/26 08:20:39;;;;;;;14.30;5.67;;;6.90;55.30;;;;;;5071965;28;20453;-85
2022/01/26 08:23:07;;;;;;;7.70;4.40;;;6.70;54.90;;;;;;5072409;28;20629;-86
2022/01/26 08:25:34;;;;;;;11.50;6.27;;;6.70;55.10;;;;;;5074525;28;20816;-86
2022/01/26 08:28:07;;;;;;;6.57;4.33;;;6.70;54.90;;;;;;5072457;28;20535;-86
2022/01/26 08:30:38;;;;;;;10.53;6.33;;;6.70;54.80;;;;;;5073859;28;20513;-86
2022/01/26 08:33:05;;;;;;;5.77;4.17;;;6.60;54.90;;;;;;5073964;28;21049;-86
2022/01/26 08:35:32;;;;;;;7.03;4.37;;;6.60;55.20;;;;;;5074125;28;20494;-86
2022/01/26 08:37:59;;;;;;;9.30;5.50;;;6.70;55.10;;;;;;5072137;28;20455;-86
2022/01/26 08:40:26;;;;;;;7.27;4.90;;;6.60;54.60;;;;;;5072849;28;20468;-86
2022/01/26 08:42:53;;;;;;;10.20;7.83;;;6.50;55.20;;;;;;5053999;28;20700;-86
2022/01/26 08:45:21;;;;;;;15.00;5.87;;;6.50;55.20;;;;;;5072526;28;20557;-84
2022/01/26 08:47:49;;;;;;;8.10;4.50;;;6.60;55.20;;;;;;5073167;28;21189;-86
2022/01/26 08:50:17;;;;;;;7.83;4.30;;;6.40;55.30;;;;;;5071182;28;21064;-86
2022/01/26 08:52:44;;;;;;;11.67;5.00;;;6.30;55.50;;;;;;5072957;28;20460;-85
2022/01/26 08:55:11;;;;;;;8.30;5.17;;;6.20;55.70;;;;;;5073142;28;20479;-86
2022/01/26 08:57:38;;;;;;;12.83;5.40;;;6.20;55.70;;;;;;5071162;28;20666;-85
2022/01/26 09:00:07;;;;;;;17.50;6.60;;;6.30;56.10;;;;;;5072371;28;20455;-86
2022/01/26 09:02:35;;;;;;;14.17;5.67;;;6.50;55.80;;;;;;5058117;28;20462;-86
2022/01/26 09:05:06;;;;;;;9.80;5.57;;;6.70;55.50;;;;;;5072664;28;22001;-86
2022/01/26 09:07:33;;;;;;;11.93;6.27;;;6.60;55.30;;;;;;5073600;28;20772;-86
2022/01/26 09:10:02;;;;;;;7.43;4.53;;;6.50;55.30;;;;;;5075373;28;20471;-86
2022/01/26 09:12:31;;;;;;;12.80;5.20;;;6.50;55.50;;;;;;5056198;28;20452;-86
2022/01/26 09:15:01;;;;;;;19.00;8.87;;;6.20;55.90;;;;;;5054296;28;20465;-86
2022/01/26 09:17:30;;;;;;;10.50;6.47;;;6.20;56.10;;;;;;5073260;28;20481;-86
2022/01/26 09:20:00;;;;;;;6.80;5.40;;;6.20;56.30;;;;;;5073349;28;20464;-87
2022/01/26 09:22:28;;;;;;;10.50;5.33;;;6.40;56.30;;;;;;5070650;28;20466;-86
2022/01/26 09:24:55;;;;;;;7.87;5.43;;;6.40;56.10;;;;;;5076112;28;20483;-86
2022/01/26 09:27:22;;;;;;;11.67;4.87;;;6.60;55.90;;;;;;5075387;28;20963;-87
2022/01/26 09:29:49;;;;;;;8.87;5.10;;;6.60;55.60;;;;;;5069997;28;20478;-86
2022/01/26 09:32:17;;;;;;;10.80;6.23;;;6.50;55.80;;;;;;5072181;28;20452;-86
2022/01/26 09:34:44;;;;;;;9.20;5.47;;;6.40;56.00;;;;;;5076907;28;20507;-86
2022/01/26 09:37:16;;;;;;;11.83;4.77;;;6.40;56.00;;;;;;5056409;28;20472;-87
2022/01/26 09:39:47;;;;;;;8.67;5.30;;;6.40;56.00;;;;;;5075236;28;20993;-86
2022/01/26 09:42:15;;;;;;;12.10;6.73;;;6.30;56.10;;;;;;5071693;28;20533;-87
2022/01/26 09:44:44;;;;;;;9.37;5.63;;;6.30;56.50;;;;;;5071487;28;20476;-84
2022/01/26 09:47:11;;;;;;;7.60;4.40;;;6.30;57.10;;;;;;5072254;28;20535;-86
2022/01/26 09:49:39;;;;;;;5.93;5.20;;;6.30;56.30;;;;;;5071513;28;20900;-87
2022/01/26 09:52:13;;;;;;;19.20;8.17;;;6.30;57.20;;;;;;5071071;28;20459;-86
2022/01/26 09:54:41;;;;;;;7.67;5.30;;;6.50;56.40;;;;;;5071865;28;21005;-86
2022/01/26 09:57:09;;;;;;;9.37;5.47;;;6.40;55.90;;;;;;5068758;28;20480;-85
2022/01/26 09:59:37;;;;;;;8.37;4.97;;;6.40;56.10;;;;;;5059757;28;20928;-84
2022/01/26 10:02:04;;;;;;;6.73;4.00;;;6.30;56.10;;;;;;5069549;28;20472;-86
2022/01/26 10:04:35;;;;;;;8.90;5.60;;;6.30;56.40;;;;;;5075846;28;20557;-86
2022/01/26 10:07:15;;;;;;;6.87;5.33;;;6.50;56.30;;;;;;5070713;28;20514;-86
2022/01/26 10:09:55;;;;;;;7.80;5.40;;;6.40;55.90;;;;;;5071688;28;20463;-86
2022/01/26 10:15:32;;;;;;;11.43;5.73;;;5.80;56.40;;;;;;5071225;28;20476;-86
2022/01/26 10:18:05;;;;;;;11.90;6.33;;;5.90;56.50;;;;;;5054013;28;20865;-86
2022/01/26 10:20:46;;;;;;;6.27;4.47;;;6.00;56.30;;;;;;5074249;28;20456;-86
2022/01/26 10:23:17;;;;;;;9.80;5.00;;;6.00;55.80;;;;;;5071395;28;20551;-86
2022/01/26 10:25:47;;;;;;;7.00;3.60;;;5.90;56.60;;;;;;5074948;28;20448;-86
2022/01/26 10:28:19;;;;;;;6.03;4.10;;;5.90;56.40;;;;;;5071983;28;20441;-86
2022/01/26 10:30:47;;;;;;;6.83;4.10;;;6.20;56.10;;;;;;5073531;28;20452;-86
2022/01/26 10:33:17;;;;;;;5.40;3.50;;;6.30;55.90;;;;;;5071727;28;20457;-85
2022/01/26 10:35:44;;;;;;;6.33;4.03;;;6.20;55.40;;;;;;5072095;28;20841;-86
2022/01/26 10:38:11;;;;;;;5.73;3.77;;;6.10;55.60;;;;;;5071467;28;20481;-86
2022/01/26 10:40:40;;;;;;;5.67;3.97;;;6.20;56.00;;;;;;5071354;28;20456;-86
2022/01/26 10:43:10;;;;;;;5.87;4.70;;;6.20;56.00;;;;;;5071539;28;20865;-87
2022/01/26 10:45:50;;;;;;;5.03;4.00;;;6.30;56.10;;;;;;5073361;28;20472;-85
2022/01/26 10:48:26;;;;;;;4.57;3.90;;;6.50;56.00;;;;;;5072459;28;20549;-86
2022/01/26 10:54:09;;;;;;;7.10;6.13;;;6.50;56.00;;;;;;5071313;28;21049;-86
2022/01/26 10:56:37;;;;;;;5.10;2.80;;;6.60;55.60;;;;;;5073548;28;20463;-85
2022/01/26 10:59:04;;;;;;;6.50;4.07;;;6.50;55.50;;;;;;5072758;28;20839;-86
2022/01/26 11:01:34;;;;;;;4.67;4.13;;;6.50;55.70;;;;;;5070131;28;20454;-86
2022/01/26 11:04:01;;;;;;;7.03;3.10;;;6.40;55.90;;;;;;5071921;28;20479;-84
2022/01/26 11:06:30;;;;;;;4.93;3.87;;;6.40;55.80;;;;;;5071655;28;20517;-86
2022/01/26 11:09:07;;;;;;;6.03;3.50;;;6.50;55.90;;;;;;5073824;28;20521;-86
2022/01/26 11:11:34;;;;;;;13.47;7.53;;;6.60;56.00;;;;;;5074220;28;20492;-86
2022/01/26 11:14:01;;;;;;;6.80;5.77;;;6.80;55.70;;;;;;5073652;28;20653;-86
2022/01/26 11:16:29;;;;;;;6.57;4.90;;;6.70;55.00;;;;;;5076752;28;20543;-86
2022/01/26 11:19:01;;;;;;;6.97;3.43;;;6.60;55.70;;;;;;5076490;28;21002;-86
2022/01/26 11:22:30;;;;;;;4.63;3.90;;;6.50;55.80;;;;;;5044583;28;20522;-86
2022/01/26 11:25:10;;;;;;;4.70;2.97;;;6.40;55.90;;;;;;5026264;28;21002;-86
2022/01/26 11:27:54;;;;;;;3.63;2.87;;;6.40;55.90;;;;;;5076509;28;20456;-85
2022/01/26 11:30:26;;;;;;;7.90;4.27;;;6.30;56.70;;;;;;5060401;28;20444;-86
2022/01/26 11:32:56;;;;;;;6.63;4.60;;;6.40;56.60;;;;;;5054758;28;20486;-86
2022/01/26 11:35:27;;;;;;;7.43;4.43;;;6.30;56.80;;;;;;5076003;28;20468;-86
2022/01/26 11:38:07;;;;;;;10.10;5.60;;;6.30;56.90;;;;;;5070922;28;20964;-85
2022/01/26 11:46:24;;;;;;;9.20;4.50;;;6.20;56.70;;;;;;5073187;28;20456;-86
2022/01/26 11:49:01;;;;;;;6.57;4.87;;;6.20;56.90;;;;;;5075664;28;20943;-86
2022/01/26 11:51:41;;;;;;;17.00;6.57;;;6.30;57.00;;;;;;5070756;28;20468;-86
2022/01/26 11:54:13;;;;;;;10.50;5.17;;;6.40;56.70;;;;;;5059216;28;20486;-86
2022/01/26 11:56:40;;;;;;;8.10;4.27;;;6.50;56.50;;;;;;5072497;28;20458;-86
2022/01/26 11:59:18;;;;;;;8.03;4.60;;;6.60;56.70;;;;;;5074806;28;20519;-86
2022/01/26 12:01:53;;;;;;;8.27;4.83;;;6.60;56.20;;;;;;5074952;28;20474;-86
2022/01/26 12:04:20;;;;;;;5.50;3.30;;;6.70;56.10;;;;;;5075521;28;20475;-84
2022/01/26 12:06:56;;;;;;;5.13;4.00;;;6.50;55.60;;;;;;5070220;28;21053;-85
2022/01/26 12:09:24;;;;;;;7.80;5.23;;;6.30;56.60;;;;;;5072536;28;20490;-85
2022/01/26 12:11:54;;;;;;;10.10;5.10;;;6.30;57.00;;;;;;5078473;28;20914;-86
2022/01/26 12:14:21;;;;;;;10.93;5.53;;;6.30;57.10;;;;;;5071661;28;20470;-84
2022/01/26 12:16:52;;;;;;;5.93;4.00;;;6.20;56.90;;;;;;5075628;28;20483;-86
2022/01/26 12:19:31;;;;;;;9.30;5.60;;;6.10;56.30;;;;;;5071993;28;21006;-86
2022/01/26 12:33:59;;;;;;;8.37;5.10;;;6.00;57.30;;;;;;5013219;28;20458;-86
2022/01/26 12:36:38;;;;;;;6.80;5.40;;;5.90;56.20;;;;;;5072847;28;20457;-86
2022/01/26 12:39:12;;;;;;;6.37;4.50;;;6.10;56.80;;;;;;5074595;28;20477;-85
2022/01/26 12:41:45;;;;;;;10.50;5.60;;;6.10;56.50;;;;;;5072912;28;20479;-85
2022/01/26 12:44:13;;;;;;;5.73;4.30;;;6.10;56.10;;;;;;5075996;28;20573;-86
2022/01/26 12:46:41;;;;;;;8.27;5.23;;;6.30;56.30;;;;;;5073307;28;20474;-85
2022/01/26 12:49:10;;;;;;;10.70;5.40;;;6.30;55.60;;;;;;5071870;28;20461;-86
2022/01/26 12:51:42;;;;;;;10.27;5.40;;;6.20;55.80;;;;;;5073643;28;20475;-85
2022/01/26 12:54:11;;;;;;;6.73;4.43;;;6.20;55.40;;;;;;5073023;28;20861;-86
2022/01/26 12:56:39;;;;;;;5.50;4.47;;;6.40;55.70;;;;;;5074612;28;20474;-85
2022/01/26 12:59:08;;;;;;;10.40;4.77;;;6.40;55.50;;;;;;5073448;28;20480;-86
2022/01/26 13:01:36;;;;;;;11.27;6.80;;;6.40;56.20;;;;;;5073007;28;20452;-86
2022/01/26 13:04:05;;;;;;;9.80;5.00;;;6.40;56.10;;;;;;5057056;28;20825;-85
2022/01/26 13:06:35;;;;;;;9.57;5.53;;;6.50;56.20;;;;;;5073952;28;20464;-86
2022/01/26 13:09:15;;;;;;;6.63;4.10;;;6.70;55.90;;;;;;5071904;28;21013;-86
2022/01/26 13:11:46;;;;;;;9.30;6.30;;;6.60;55.90;;;;;;5072687;28;20491;-86
2022/01/26 13:14:21;;;;;;;5.87;4.43;;;6.50;55.80;;;;;;5073169;28;20982;-86
2022/01/26 13:17:03;;;;;;;6.97;5.23;;;6.50;56.40;;;;;;5070935;28;20463;-84
2022/01/26 13:19:39;;;;;;;38.73;21.70;;;6.40;56.40;;;;;;5073747;28;20987;-86
2022/01/26 13:25:00;;;;;;;8.03;4.90;;;6.70;56.40;;;;;;5071028;28;20459;-85
2022/01/26 13:27:40;;;;;;;8.77;5.20;;;6.70;55.90;;;;;;5071815;28;20454;-86
2022/01/26 13:30:22;;;;;;;12.93;6.40;;;6.60;56.40;;;;;;5074447;28;20456;-86
2022/01/26 13:33:07;;;;;;;5.80;4.47;;;6.50;56.70;;;;;;5073325;28;20859;-85
2022/01/26 13:38:41;;;;;;;7.90;5.10;;;6.50;56.50;;;;;;5070512;28;20496;-86
2022/01/26 13:41:21;;;;;;;10.03;5.30;;;6.40;56.30;;;;;;5073379;28;20795;-86
2022/01/26 13:49:34;;;;;;;11.50;6.67;;;6.40;56.60;;;;;;5071443;28;20447;-86
2022/01/26 13:52:18;;;;;;;7.63;4.87;;;6.40;56.90;;;;;;5074457;28;20977;-86
2022/01/26 13:55:21;;;;;;;10.03;5.57;;;6.50;57.10;;;;;;5074048;28;20507;-86
2022/01/26 13:58:16;;;;;;;7.57;5.27;;;6.50;56.50;;;;;;5074298;28;20463;-87
2022/01/26 14:00:47;;;;;;;9.30;6.27;;;6.70;56.10;;;;;;5072639;28;20468;-87
2022/01/26 14:03:16;;;;;;;6.93;5.43;;;6.80;56.10;;;;;;5073894;28;20572;-86
2022/01/26 14:05:43;;;;;;;6.47;5.37;;;6.80;56.10;;;;;;5072788;28;20461;-86
2022/01/26 14:08:10;;;;;;;9.80;6.77;;;6.60;56.20;;;;;;5055150;28;20454;-85
2022/01/26 14:10:37;;;;;;;16.70;10.60;;;6.60;56.20;;;;;;5071257;28;20467;-86
2022/01/26 14:13:04;;;;;;;11.37;7.63;;;6.60;56.40;;;;;;5052774;28;20487;-86
2022/01/26 14:15:42;;;;;;;15.90;7.67;;;6.40;56.80;;;;;;5074141;28;21089;-86
2022/01/26 14:18:38;;;;;;;11.90;7.30;;;6.50;56.90;;;;;;5074790;28;20794;-86
2022/01/26 14:21:21;;;;;;;11.17;7.70;;;6.50;56.70;;;;;;5074898;28;20468;-86
2022/01/26 14:24:22;;;;;;;14.77;7.57;;;6.70;56.50;;;;;;5070650;28;20571;-87
2022/01/26 14:26:53;;;;;;;11.53;7.10;;;6.70;56.10;;;;;;5071456;28;20462;-86
2022/01/26 14:29:30;;;;;;;14.87;8.53;;;6.70;56.30;;;;;;5067402;28;20457;-84
2022/01/26 14:32:10;;;;;;;13.43;6.50;;;6.70;55.90;;;;;;5069374;28;20467;-86
2022/01/26 14:35:05;;;;;;;17.13;8.50;;;6.50;56.10;;;;;;5071521;28;20567;-86
2022/01/26 14:54:24;;;;;;;16.00;7.70;;;6.70;56.30;;;;;;5073937;28;20462;-87
2022/01/26 15:30:14;;;;;;;13.40;7.43;;;6.70;56.90;;;;;;5069201;28;20470;-84
2022/01/26 15:35:39;;;;;;;17.97;7.63;;;6.70;56.80;;;;;;5072668;28;20474;-86